Terminal Aerodrome Forecast
Issued by NWS

Home | Current Version | Previous Version | Text Only | Print | Product List | Glossary On
Versions: 1 2 3 4 5 6 7 8 9 10 11 12
930
FTUS42 TJSJ 220526
TAFJMZ
TAF
TJMZ 220526Z 2206/2306 VRB04KT P6SM FEW040
     FM221400 07008KT P6SM FEW030
     FM221800 06012KT P6SM SCT030
      AMD NOT SKED=

USA.gov is the U.S. government's official web portal to all federal, state and local government web resources and services.